sensor_id;sensor_type;location;lat;lon;timestamp;P1;durP1;ratioP1;P2;durP2;ratioP2
13847;SDS011;6994;49.752;6.094;2023-05-29T00:00:57;5.00;;;2.75;;
13847;SDS011;6994;49.752;6.094;2023-05-29T00:03:25;5.40;;;2.22;;
13847;SDS011;6994;49.752;6.094;2023-05-29T00:05:52;4.35;;;2.58;;
13847;SDS011;6994;49.752;6.094;2023-05-29T00:08:19;6.75;;;2.40;;
13847;SDS011;6994;49.752;6.094;2023-05-29T00:10:46;3.60;;;2.25;;
13847;SDS011;6994;49.752;6.094;2023-05-29T00:13:13;4.07;;;2.87;;
13847;SDS011;6994;49.752;6.094;2023-05-29T00:15:41;4.75;;;2.75;;
13847;SDS011;6994;49.752;6.094;2023-05-29T00:18:08;3.08;;;2.45;;
13847;SDS011;6994;49.752;6.094;2023-05-29T00:20:35;3.92;;;2.72;;
13847;SDS011;6994;49.752;6.094;2023-05-29T00:23:02;3.67;;;2.60;;
13847;SDS011;6994;49.752;6.094;2023-05-29T00:25:30;3.00;;;2.37;;
13847;SDS011;6994;49.752;6.094;2023-05-29T00:27:58;2.75;;;2.22;;
13847;SDS011;6994;49.752;6.094;2023-05-29T00:30:26;4.40;;;2.60;;
13847;SDS011;6994;49.752;6.094;2023-05-29T00:32:54;3.45;;;2.37;;
13847;SDS011;6994;49.752;6.094;2023-05-29T00:35:21;5.75;;;2.75;;
13847;SDS011;6994;49.752;6.094;2023-05-29T00:37:49;3.20;;;2.90;;
13847;SDS011;6994;49.752;6.094;2023-05-29T00:40:16;3.17;;;2.60;;
13847;SDS011;6994;49.752;6.094;2023-05-29T00:42:43;3.05;;;2.35;;
13847;SDS011;6994;49.752;6.094;2023-05-29T00:45:10;3.20;;;2.30;;
13847;SDS011;6994;49.752;6.094;2023-05-29T00:47:37;5.80;;;2.62;;
13847;SDS011;6994;49.752;6.094;2023-05-29T00:50:05;4.78;;;2.90;;
13847;SDS011;6994;49.752;6.094;2023-05-29T00:52:33;4.35;;;2.50;;
13847;SDS011;6994;49.752;6.094;2023-05-29T00:55:00;3.65;;;2.67;;
13847;SDS011;6994;49.752;6.094;2023-05-29T00:57:27;3.70;;;3.05;;
13847;SDS011;6994;49.752;6.094;2023-05-29T00:59:55;4.07;;;2.58;;
13847;SDS011;6994;49.752;6.094;2023-05-29T01:02:21;3.25;;;2.95;;
13847;SDS011;6994;49.752;6.094;2023-05-29T01:04:49;5.15;;;2.70;;
13847;SDS011;6994;49.752;6.094;2023-05-29T01:07:16;5.05;;;2.85;;
13847;SDS011;6994;49.752;6.094;2023-05-29T01:09:44;4.75;;;2.90;;
13847;SDS011;6994;49.752;6.094;2023-05-29T01:12:19;3.33;;;2.75;;
13847;SDS011;6994;49.752;6.094;2023-05-29T01:20:33;5.40;;;3.08;;
13847;SDS011;6994;49.752;6.094;2023-05-29T01:23:07;4.90;;;2.47;;
13847;SDS011;6994;49.752;6.094;2023-05-29T01:28:13;5.03;;;2.85;;
13847;SDS011;6994;49.752;6.094;2023-05-29T01:30:40;4.15;;;2.80;;
13847;SDS011;6994;49.752;6.094;2023-05-29T01:33:08;2.62;;;2.30;;
13847;SDS011;6994;49.752;6.094;2023-05-29T01:35:35;4.85;;;2.60;;
13847;SDS011;6994;49.752;6.094;2023-05-29T01:38:02;4.43;;;2.65;;
13847;SDS011;6994;49.752;6.094;2023-05-29T01:40:29;3.42;;;2.50;;
13847;SDS011;6994;49.752;6.094;2023-05-29T01:42:57;5.80;;;3.17;;
13847;SDS011;6994;49.752;6.094;2023-05-29T01:45:25;4.55;;;2.55;;
13847;SDS011;6994;49.752;6.094;2023-05-29T01:47:53;3.80;;;2.22;;
13847;SDS011;6994;49.752;6.094;2023-05-29T01:50:20;4.00;;;3.15;;
13847;SDS011;6994;49.752;6.094;2023-05-29T01:52:47;6.97;;;2.47;;
13847;SDS011;6994;49.752;6.094;2023-05-29T01:55:15;5.25;;;3.10;;
13847;SDS011;6994;49.752;6.094;2023-05-29T01:57:42;5.45;;;2.70;;
13847;SDS011;6994;49.752;6.094;2023-05-29T02:00:09;5.72;;;2.83;;
13847;SDS011;6994;49.752;6.094;2023-05-29T02:02:39;3.62;;;2.70;;
13847;SDS011;6994;49.752;6.094;2023-05-29T02:05:10;3.20;;;2.12;;
13847;SDS011;6994;49.752;6.094;2023-05-29T02:07:36;3.65;;;2.35;;
13847;SDS011;6994;49.752;6.094;2023-05-29T02:10:04;5.57;;;2.72;;
13847;SDS011;6994;49.752;6.094;2023-05-29T02:12:31;3.17;;;2.78;;
13847;SDS011;6994;49.752;6.094;2023-05-29T02:14:59;3.87;;;2.95;;
13847;SDS011;6994;49.752;6.094;2023-05-29T02:17:26;8.02;;;2.80;;
13847;SDS011;6994;49.752;6.094;2023-05-29T02:19:53;3.78;;;2.92;;
13847;SDS011;6994;49.752;6.094;2023-05-29T02:22:20;4.57;;;3.28;;
13847;SDS011;6994;49.752;6.094;2023-05-29T02:24:47;3.05;;;2.53;;
13847;SDS011;6994;49.752;6.094;2023-05-29T02:27:15;4.72;;;3.47;;
13847;SDS011;6994;49.752;6.094;2023-05-29T02:29:42;8.00;;;3.65;;
13847;SDS011;6994;49.752;6.094;2023-05-29T02:32:09;4.82;;;3.10;;
13847;SDS011;6994;49.752;6.094;2023-05-29T02:34:36;3.40;;;3.10;;
13847;SDS011;6994;49.752;6.094;2023-05-29T02:37:04;7.75;;;4.25;;
13847;SDS011;6994;49.752;6.094;2023-05-29T02:39:31;5.03;;;3.00;;
13847;SDS011;6994;49.752;6.094;2023-05-29T02:41:59;5.47;;;3.00;;
13847;SDS011;6994;49.752;6.094;2023-05-29T02:44:27;6.45;;;3.30;;
13847;SDS011;6994;49.752;6.094;2023-05-29T02:46:55;4.05;;;3.05;;
13847;SDS011;6994;49.752;6.094;2023-05-29T02:49:22;3.97;;;2.95;;
13847;SDS011;6994;49.752;6.094;2023-05-29T02:51:49;6.97;;;3.05;;
13847;SDS011;6994;49.752;6.094;2023-05-29T02:54:16;3.72;;;2.90;;
13847;SDS011;6994;49.752;6.094;2023-05-29T02:56:44;5.32;;;3.30;;
13847;SDS011;6994;49.752;6.094;2023-05-29T02:59:11;4.87;;;2.60;;
13847;SDS011;6994;49.752;6.094;2023-05-29T03:01:38;4.95;;;3.12;;
13847;SDS011;6994;49.752;6.094;2023-05-29T03:04:05;5.03;;;4.05;;
13847;SDS011;6994;49.752;6.094;2023-05-29T03:06:32;8.80;;;3.20;;
13847;SDS011;6994;49.752;6.094;2023-05-29T03:09:00;4.95;;;3.20;;
13847;SDS011;6994;49.752;6.094;2023-05-29T03:11:28;4.43;;;3.37;;
13847;SDS011;6994;49.752;6.094;2023-05-29T03:13:55;5.60;;;3.50;;
13847;SDS011;6994;49.752;6.094;2023-05-29T03:16:24;5.47;;;3.22;;
13847;SDS011;6994;49.752;6.094;2023-05-29T03:18:51;6.75;;;3.47;;
13847;SDS011;6994;49.752;6.094;2023-05-29T03:21:19;6.55;;;3.87;;
13847;SDS011;6994;49.752;6.094;2023-05-29T03:23:47;6.15;;;3.17;;
13847;SDS011;6994;49.752;6.094;2023-05-29T03:26:14;5.50;;;2.85;;
13847;SDS011;6994;49.752;6.094;2023-05-29T03:28:41;7.70;;;3.60;;
13847;SDS011;6994;49.752;6.094;2023-05-29T03:31:08;4.10;;;2.97;;
13847;SDS011;6994;49.752;6.094;2023-05-29T03:33:35;4.20;;;3.50;;
13847;SDS011;6994;49.752;6.094;2023-05-29T03:36:03;4.80;;;3.33;;
13847;SDS011;6994;49.752;6.094;2023-05-29T03:38:30;5.47;;;3.50;;
13847;SDS011;6994;49.752;6.094;2023-05-29T03:40:58;6.37;;;3.95;;
13847;SDS011;6994;49.752;6.094;2023-05-29T03:43:26;5.45;;;3.22;;
13847;SDS011;6994;49.752;6.094;2023-05-29T03:45:54;4.82;;;2.90;;
13847;SDS011;6994;49.752;6.094;2023-05-29T03:48:22;4.57;;;3.78;;
13847;SDS011;6994;49.752;6.094;2023-05-29T03:50:49;4.82;;;3.35;;
13847;SDS011;6994;49.752;6.094;2023-05-29T03:53:16;5.18;;;3.85;;
13847;SDS011;6994;49.752;6.094;2023-05-29T03:55:43;5.30;;;4.05;;
13847;SDS011;6994;49.752;6.094;2023-05-29T03:58:11;4.82;;;3.40;;
13847;SDS011;6994;49.752;6.094;2023-05-29T04:00:38;7.40;;;3.40;;
13847;SDS011;6994;49.752;6.094;2023-05-29T04:03:05;5.07;;;3.33;;
13847;SDS011;6994;49.752;6.094;2023-05-29T04:05:32;7.18;;;3.28;;
13847;SDS011;6994;49.752;6.094;2023-05-29T04:08:00;3.80;;;3.37;;
13847;SDS011;6994;49.752;6.094;2023-05-29T04:10:27;5.53;;;3.12;;
13847;SDS011;6994;49.752;6.094;2023-05-29T04:12:54;4.85;;;3.20;;
13847;SDS011;6994;49.752;6.094;2023-05-29T04:15:21;5.55;;;3.97;;
13847;SDS011;6994;49.752;6.094;2023-05-29T04:17:49;9.38;;;3.30;;
13847;SDS011;6994;49.752;6.094;2023-05-29T04:20:17;3.78;;;3.15;;
13847;SDS011;6994;49.752;6.094;2023-05-29T04:22:45;4.45;;;4.05;;
13847;SDS011;6994;49.752;6.094;2023-05-29T04:25:12;5.75;;;3.33;;
13847;SDS011;6994;49.752;6.094;2023-05-29T04:27:39;5.78;;;3.35;;
13847;SDS011;6994;49.752;6.094;2023-05-29T04:30:07;4.00;;;3.47;;
13847;SDS011;6994;49.752;6.094;2023-05-29T04:35:04;6.25;;;4.03;;
13847;SDS011;6994;49.752;6.094;2023-05-29T04:37:31;7.03;;;3.17;;
13847;SDS011;6994;49.752;6.094;2023-05-29T04:39:58;7.07;;;3.15;;
13847;SDS011;6994;49.752;6.094;2023-05-29T04:42:25;5.75;;;3.80;;
13847;SDS011;6994;49.752;6.094;2023-05-29T04:44:53;4.03;;;3.28;;
13847;SDS011;6994;49.752;6.094;2023-05-29T04:47:20;6.22;;;3.22;;
13847;SDS011;6994;49.752;6.094;2023-05-29T04:49:48;6.90;;;3.00;;
13847;SDS011;6994;49.752;6.094;2023-05-29T04:52:16;4.55;;;3.22;;
13847;SDS011;6994;49.752;6.094;2023-05-29T04:54:44;3.22;;;2.50;;
13847;SDS011;6994;49.752;6.094;2023-05-29T04:57:12;5.55;;;3.47;;
13847;SDS011;6994;49.752;6.094;2023-05-29T04:59:40;3.15;;;2.78;;
13847;SDS011;6994;49.752;6.094;2023-05-29T05:02:08;6.43;;;3.17;;
13847;SDS011;6994;49.752;6.094;2023-05-29T05:04:35;3.00;;;2.62;;
13847;SDS011;6994;49.752;6.094;2023-05-29T05:07:02;3.55;;;2.58;;
13847;SDS011;6994;49.752;6.094;2023-05-29T05:09:29;6.00;;;3.12;;
13847;SDS011;6994;49.752;6.094;2023-05-29T05:11:57;3.55;;;2.80;;
13847;SDS011;6994;49.752;6.094;2023-05-29T05:14:24;4.22;;;3.10;;
13847;SDS011;6994;49.752;6.094;2023-05-29T05:16:51;6.87;;;3.97;;
13847;SDS011;6994;49.752;6.094;2023-05-29T05:19:19;5.12;;;3.28;;
13847;SDS011;6994;49.752;6.094;2023-05-29T05:21:45;6.90;;;3.22;;
13847;SDS011;6994;49.752;6.094;2023-05-29T05:24:13;6.62;;;3.47;;
13847;SDS011;6994;49.752;6.094;2023-05-29T05:26:40;5.68;;;3.72;;
13847;SDS011;6994;49.752;6.094;2023-05-29T05:29:08;6.10;;;3.00;;
13847;SDS011;6994;49.752;6.094;2023-05-29T05:31:36;4.93;;;3.25;;
13847;SDS011;6994;49.752;6.094;2023-05-29T05:34:04;5.80;;;2.92;;
13847;SDS011;6994;49.752;6.094;2023-05-29T05:36:32;5.47;;;3.28;;
13847;SDS011;6994;49.752;6.094;2023-05-29T05:38:59;4.62;;;3.03;;
13847;SDS011;6994;49.752;6.094;2023-05-29T05:41:26;5.03;;;3.62;;
13847;SDS011;6994;49.752;6.094;2023-05-29T05:43:53;5.07;;;3.50;;
13847;SDS011;6994;49.752;6.094;2023-05-29T05:46:20;4.97;;;3.30;;
13847;SDS011;6994;49.752;6.094;2023-05-29T05:48:48;5.65;;;3.85;;
13847;SDS011;6994;49.752;6.094;2023-05-29T05:51:15;4.53;;;3.10;;
13847;SDS011;6994;49.752;6.094;2023-05-29T05:53:42;5.30;;;3.33;;
13847;SDS011;6994;49.752;6.094;2023-05-29T05:56:09;5.45;;;2.87;;
13847;SDS011;6994;49.752;6.094;2023-05-29T05:58:37;5.68;;;3.42;;
13847;SDS011;6994;49.752;6.094;2023-05-29T06:01:05;6.18;;;3.65;;
13847;SDS011;6994;49.752;6.094;2023-05-29T06:03:32;4.43;;;3.08;;
13847;SDS011;6994;49.752;6.094;2023-05-29T06:06:00;9.35;;;3.67;;
13847;SDS011;6994;49.752;6.094;2023-05-29T06:08:27;5.37;;;3.62;;
13847;SDS011;6994;49.752;6.094;2023-05-29T06:10:54;5.40;;;3.22;;
13847;SDS011;6994;49.752;6.094;2023-05-29T06:13:21;6.28;;;3.20;;
13847;SDS011;6994;49.752;6.094;2023-05-29T06:15:48;4.25;;;3.50;;
13847;SDS011;6994;49.752;6.094;2023-05-29T06:18:16;7.18;;;3.83;;
13847;SDS011;6994;49.752;6.094;2023-05-29T06:20:43;5.37;;;3.28;;
13847;SDS011;6994;49.752;6.094;2023-05-29T06:23:10;5.82;;;3.47;;
13847;SDS011;6994;49.752;6.094;2023-05-29T06:25:37;4.53;;;3.20;;
13847;SDS011;6994;49.752;6.094;2023-05-29T06:28:04;8.73;;;3.28;;
13847;SDS011;6994;49.752;6.094;2023-05-29T06:30:34;4.03;;;2.92;;
13847;SDS011;6994;49.752;6.094;2023-05-29T06:33:02;4.45;;;2.92;;
13847;SDS011;6994;49.752;6.094;2023-05-29T06:35:30;5.95;;;3.50;;
13847;SDS011;6994;49.752;6.094;2023-05-29T06:37:58;3.65;;;2.60;;
13847;SDS011;6994;49.752;6.094;2023-05-29T06:40:26;8.85;;;3.75;;
13847;SDS011;6994;49.752;6.094;2023-05-29T06:42:54;5.15;;;3.45;;
13847;SDS011;6994;49.752;6.094;2023-05-29T06:45:22;4.75;;;3.10;;
13847;SDS011;6994;49.752;6.094;2023-05-29T06:47:49;5.82;;;3.08;;
13847;SDS011;6994;49.752;6.094;2023-05-29T06:50:16;6.07;;;2.90;;
13847;SDS011;6994;49.752;6.094;2023-05-29T06:52:43;4.60;;;2.70;;
13847;SDS011;6994;49.752;6.094;2023-05-29T06:55:10;4.12;;;2.90;;
13847;SDS011;6994;49.752;6.094;2023-05-29T06:57:38;8.55;;;3.15;;
13847;SDS011;6994;49.752;6.094;2023-05-29T07:00:05;3.58;;;2.55;;
13847;SDS011;6994;49.752;6.094;2023-05-29T07:02:32;3.10;;;2.45;;
13847;SDS011;6994;49.752;6.094;2023-05-29T07:04:59;4.82;;;2.72;;
13847;SDS011;6994;49.752;6.094;2023-05-29T07:07:27;3.83;;;2.53;;
13847;SDS011;6994;49.752;6.094;2023-05-29T07:09:54;2.60;;;2.40;;
13847;SDS011;6994;49.752;6.094;2023-05-29T07:12:24;5.55;;;2.40;;
13847;SDS011;6994;49.752;6.094;2023-05-29T07:14:51;2.67;;;2.20;;
13847;SDS011;6994;49.752;6.094;2023-05-29T07:17:18;5.10;;;2.62;;
13847;SDS011;6994;49.752;6.094;2023-05-29T07:19:46;5.47;;;2.08;;
13847;SDS011;6994;49.752;6.094;2023-05-29T07:22:13;4.60;;;3.10;;
13847;SDS011;6994;49.752;6.094;2023-05-29T07:24:40;3.58;;;2.37;;
13847;SDS011;6994;49.752;6.094;2023-05-29T07:27:07;4.37;;;2.17;;
13847;SDS011;6994;49.752;6.094;2023-05-29T07:29:34;4.22;;;1.62;;
13847;SDS011;6994;49.752;6.094;2023-05-29T07:32:02;4.47;;;2.53;;
13847;SDS011;6994;49.752;6.094;2023-05-29T07:34:30;4.68;;;2.22;;
13847;SDS011;6994;49.752;6.094;2023-05-29T07:39:24;2.55;;;2.20;;
13847;SDS011;6994;49.752;6.094;2023-05-29T07:41:51;3.85;;;2.45;;
13847;SDS011;6994;49.752;6.094;2023-05-29T07:44:18;2.80;;;2.15;;
13847;SDS011;6994;49.752;6.094;2023-05-29T07:46:46;12.10;;;2.83;;
13847;SDS011;6994;49.752;6.094;2023-05-29T07:49:13;4.95;;;2.78;;
13847;SDS011;6994;49.752;6.094;2023-05-29T07:51:40;3.72;;;2.22;;
13847;SDS011;6994;49.752;6.094;2023-05-29T07:54:07;5.78;;;2.67;;
13847;SDS011;6994;49.752;6.094;2023-05-29T07:56:34;5.40;;;2.83;;
13847;SDS011;6994;49.752;6.094;2023-05-29T07:59:02;4.35;;;2.33;;
13847;SDS011;6994;49.752;6.094;2023-05-29T08:01:30;5.37;;;2.25;;
13847;SDS011;6994;49.752;6.094;2023-05-29T08:03:57;3.25;;;2.80;;
13847;SDS011;6994;49.752;6.094;2023-05-29T08:06:24;4.82;;;2.47;;
13847;SDS011;6994;49.752;6.094;2023-05-29T08:08:51;3.78;;;2.87;;
13847;SDS011;6994;49.752;6.094;2023-05-29T08:11:18;6.68;;;2.62;;
13847;SDS011;6994;49.752;6.094;2023-05-29T08:13:46;3.83;;;2.80;;
13847;SDS011;6994;49.752;6.094;2023-05-29T08:16:13;4.87;;;2.80;;
13847;SDS011;6994;49.752;6.094;2023-05-29T08:18:40;4.50;;;3.03;;
13847;SDS011;6994;49.752;6.094;2023-05-29T08:21:08;7.12;;;2.53;;
13847;SDS011;6994;49.752;6.094;2023-05-29T08:23:38;4.28;;;2.42;;
13847;SDS011;6994;49.752;6.094;2023-05-29T08:26:05;3.42;;;2.28;;
13847;SDS011;6994;49.752;6.094;2023-05-29T08:28:32;3.42;;;2.45;;
13847;SDS011;6994;49.752;6.094;2023-05-29T08:30:59;8.88;;;3.37;;
13847;SDS011;6994;49.752;6.094;2023-05-29T08:33:26;3.37;;;2.30;;
13847;SDS011;6994;49.752;6.094;2023-05-29T08:35:54;4.43;;;2.50;;
13847;SDS011;6994;49.752;6.094;2023-05-29T08:38:21;3.08;;;2.78;;
13847;SDS011;6994;49.752;6.094;2023-05-29T08:40:48;3.22;;;2.60;;
13847;SDS011;6994;49.752;6.094;2023-05-29T08:43:16;2.80;;;2.40;;
13847;SDS011;6994;49.752;6.094;2023-05-29T08:45:43;3.60;;;2.55;;
13847;SDS011;6994;49.752;6.094;2023-05-29T08:48:13;4.12;;;2.28;;
13847;SDS011;6994;49.752;6.094;2023-05-29T08:50:42;5.78;;;2.40;;
13847;SDS011;6994;49.752;6.094;2023-05-29T08:53:10;4.43;;;2.42;;
13847;SDS011;6994;49.752;6.094;2023-05-29T08:55:37;4.83;;;2.40;;
13847;SDS011;6994;49.752;6.094;2023-05-29T08:58:04;4.37;;;2.28;;
13847;SDS011;6994;49.752;6.094;2023-05-29T09:00:34;5.25;;;2.10;;
13847;SDS011;6994;49.752;6.094;2023-05-29T09:03:02;2.78;;;2.37;;
13847;SDS011;6994;49.752;6.094;2023-05-29T09:05:29;4.60;;;2.78;;
13847;SDS011;6994;49.752;6.094;2023-05-29T09:07:56;3.40;;;2.30;;
13847;SDS011;6994;49.752;6.094;2023-05-29T09:10:23;4.72;;;2.28;;
13847;SDS011;6994;49.752;6.094;2023-05-29T09:12:51;4.05;;;2.60;;
13847;SDS011;6994;49.752;6.094;2023-05-29T09:15:22;2.95;;;2.25;;
13847;SDS011;6994;49.752;6.094;2023-05-29T09:20:18;5.57;;;2.40;;
13847;SDS011;6994;49.752;6.094;2023-05-29T09:25:26;4.47;;;2.42;;
13847;SDS011;6994;49.752;6.094;2023-05-29T09:27:51;3.03;;;1.95;;
13847;SDS011;6994;49.752;6.094;2023-05-29T09:30:34;2.47;;;2.20;;
13847;SDS011;6994;49.752;6.094;2023-05-29T09:33:04;2.37;;;2.12;;
13847;SDS011;6994;49.752;6.094;2023-05-29T09:35:41;2.92;;;2.30;;
13847;SDS011;6994;49.752;6.094;2023-05-29T09:38:11;3.58;;;2.25;;
13847;SDS011;6994;49.752;6.094;2023-05-29T09:40:40;2.65;;;2.20;;
13847;SDS011;6994;49.752;6.094;2023-05-29T09:43:14;4.15;;;2.65;;
13847;SDS011;6994;49.752;6.094;2023-05-29T09:45:41;3.95;;;2.20;;
13847;SDS011;6994;49.752;6.094;2023-05-29T09:48:08;4.15;;;2.45;;
13847;SDS011;6994;49.752;6.094;2023-05-29T09:50:35;4.75;;;2.30;;
13847;SDS011;6994;49.752;6.094;2023-05-29T09:53:02;3.03;;;2.00;;
13847;SDS011;6994;49.752;6.094;2023-05-29T09:55:30;4.37;;;2.97;;
13847;SDS011;6994;49.752;6.094;2023-05-29T09:57:56;3.15;;;2.20;;
13847;SDS011;6994;49.752;6.094;2023-05-29T10:00:24;4.55;;;2.50;;
13847;SDS011;6994;49.752;6.094;2023-05-29T10:02:52;2.37;;;1.87;;
13847;SDS011;6994;49.752;6.094;2023-05-29T10:05:20;2.97;;;1.77;;
13847;SDS011;6994;49.752;6.094;2023-05-29T10:07:47;3.03;;;2.15;;
13847;SDS011;6994;49.752;6.094;2023-05-29T10:10:15;5.95;;;1.85;;
13847;SDS011;6994;49.752;6.094;2023-05-29T10:12:44;3.50;;;1.90;;
13847;SDS011;6994;49.752;6.094;2023-05-29T10:15:11;4.78;;;2.10;;
13847;SDS011;6994;49.752;6.094;2023-05-29T10:17:36;3.83;;;2.53;;
13847;SDS011;6994;49.752;6.094;2023-05-29T10:20:05;3.60;;;2.37;;
13847;SDS011;6994;49.752;6.094;2023-05-29T10:22:32;2.70;;;2.33;;
13847;SDS011;6994;49.752;6.094;2023-05-29T10:25:00;5.40;;;1.58;;
13847;SDS011;6994;49.752;6.094;2023-05-29T10:27:28;5.72;;;2.05;;
13847;SDS011;6994;49.752;6.094;2023-05-29T10:29:58;5.47;;;2.28;;
13847;SDS011;6994;49.752;6.094;2023-05-29T10:35:16;4.20;;;2.50;;
13847;SDS011;6994;49.752;6.094;2023-05-29T10:40:30;3.33;;;2.28;;
13847;SDS011;6994;49.752;6.094;2023-05-29T10:42:57;3.53;;;2.60;;
13847;SDS011;6994;49.752;6.094;2023-05-29T10:47:55;4.03;;;2.87;;
13847;SDS011;6994;49.752;6.094;2023-05-29T10:50:37;3.80;;;2.50;;
13847;SDS011;6994;49.752;6.094;2023-05-29T10:53:17;3.75;;;1.75;;
13847;SDS011;6994;49.752;6.094;2023-05-29T10:55:41;3.40;;;2.10;;
13847;SDS011;6994;49.752;6.094;2023-05-29T10:58:11;3.03;;;1.75;;
13847;SDS011;6994;49.752;6.094;2023-05-29T11:00:42;2.87;;;2.20;;
13847;SDS011;6994;49.752;6.094;2023-05-29T11:03:09;3.05;;;1.95;;
13847;SDS011;6994;49.752;6.094;2023-05-29T11:06:22;5.30;;;2.47;;
13847;SDS011;6994;49.752;6.094;2023-05-29T11:08:28;3.17;;;1.73;;
13847;SDS011;6994;49.752;6.094;2023-05-29T11:13:25;2.67;;;1.70;;
13847;SDS011;6994;49.752;6.094;2023-05-29T11:16:09;2.47;;;2.00;;
13847;SDS011;6994;49.752;6.094;2023-05-29T11:18:31;3.17;;;2.20;;
13847;SDS011;6994;49.752;6.094;2023-05-29T11:20:59;3.15;;;2.30;;
13847;SDS011;6994;49.752;6.094;2023-05-29T11:23:26;2.60;;;2.28;;
13847;SDS011;6994;49.752;6.094;2023-05-29T11:25:54;2.65;;;2.35;;
13847;SDS011;6994;49.752;6.094;2023-05-29T11:28:22;3.17;;;2.35;;
13847;SDS011;6994;49.752;6.094;2023-05-29T11:30:50;3.15;;;2.03;;
13847;SDS011;6994;49.752;6.094;2023-05-29T11:33:24;3.70;;;1.90;;
13847;SDS011;6994;49.752;6.094;2023-05-29T11:35:55;2.42;;;2.22;;
13847;SDS011;6994;49.752;6.094;2023-05-29T11:38:20;2.30;;;2.10;;
13847;SDS011;6994;49.752;6.094;2023-05-29T11:40:47;3.80;;;2.40;;
13847;SDS011;6994;49.752;6.094;2023-05-29T11:43:14;2.95;;;2.28;;
13847;SDS011;6994;49.752;6.094;2023-05-29T11:45:42;3.05;;;2.50;;
13847;SDS011;6994;49.752;6.094;2023-05-29T11:48:09;2.30;;;2.08;;
13847;SDS011;6994;49.752;6.094;2023-05-29T11:50:36;4.82;;;2.42;;
13847;SDS011;6994;49.752;6.094;2023-05-29T11:53:05;2.45;;;2.20;;
13847;SDS011;6994;49.752;6.094;2023-05-29T11:55:30;2.20;;;1.90;;
13847;SDS011;6994;49.752;6.094;2023-05-29T11:58:01;2.58;;;2.37;;
13847;SDS011;6994;49.752;6.094;2023-05-29T12:00:35;3.45;;;2.28;;
13847;SDS011;6994;49.752;6.094;2023-05-29T12:02:58;2.87;;;2.22;;
13847;SDS011;6994;49.752;6.094;2023-05-29T12:05:25;4.05;;;2.55;;
13847;SDS011;6994;49.752;6.094;2023-05-29T12:07:53;2.53;;;2.40;;
13847;SDS011;6994;49.752;6.094;2023-05-29T12:10:20;2.70;;;2.50;;
13847;SDS011;6994;49.752;6.094;2023-05-29T12:12:47;2.37;;;2.17;;
13847;SDS011;6994;49.752;6.094;2023-05-29T12:15:14;4.28;;;2.85;;
13847;SDS011;6994;49.752;6.094;2023-05-29T12:17:42;2.62;;;2.30;;
13847;SDS011;6994;49.752;6.094;2023-05-29T12:20:10;3.22;;;2.45;;
13847;SDS011;6994;49.752;6.094;2023-05-29T12:22:37;2.53;;;2.33;;
13847;SDS011;6994;49.752;6.094;2023-05-29T12:25:09;4.75;;;2.58;;
13847;SDS011;6994;49.752;6.094;2023-05-29T12:27:35;2.87;;;2.50;;
13847;SDS011;6994;49.752;6.094;2023-05-29T12:30:02;2.85;;;2.40;;
13847;SDS011;6994;49.752;6.094;2023-05-29T12:32:38;3.03;;;2.83;;
13847;SDS011;6994;49.752;6.094;2023-05-29T12:35:12;2.70;;;2.28;;
13847;SDS011;6994;49.752;6.094;2023-05-29T12:37:49;4.30;;;2.53;;
13847;SDS011;6994;49.752;6.094;2023-05-29T12:40:20;3.22;;;2.22;;
13847;SDS011;6994;49.752;6.094;2023-05-29T12:42:53;3.00;;;2.35;;
13847;SDS011;6994;49.752;6.094;2023-05-29T12:45:17;3.42;;;2.30;;
13847;SDS011;6994;49.752;6.094;2023-05-29T12:50:23;2.62;;;2.42;;
13847;SDS011;6994;49.752;6.094;2023-05-29T12:52:56;2.85;;;2.53;;
13847;SDS011;6994;49.752;6.094;2023-05-29T12:55:21;2.97;;;2.67;;
13847;SDS011;6994;49.752;6.094;2023-05-29T12:57:48;2.70;;;2.50;;
13847;SDS011;6994;49.752;6.094;2023-05-29T13:00:15;3.05;;;2.85;;
13847;SDS011;6994;49.752;6.094;2023-05-29T13:02:42;3.30;;;3.10;;
13847;SDS011;6994;49.752;6.094;2023-05-29T13:05:09;2.60;;;2.37;;
13847;SDS011;6994;49.752;6.094;2023-05-29T13:07:37;4.43;;;2.85;;
13847;SDS011;6994;49.752;6.094;2023-05-29T13:10:04;2.50;;;2.30;;
13847;SDS011;6994;49.752;6.094;2023-05-29T13:12:31;3.45;;;3.15;;
13847;SDS011;6994;49.752;6.094;2023-05-29T13:14:58;2.78;;;2.58;;
13847;SDS011;6994;49.752;6.094;2023-05-29T13:17:26;2.53;;;2.33;;
13847;SDS011;6994;49.752;6.094;2023-05-29T13:19:54;3.03;;;2.80;;
13847;SDS011;6994;49.752;6.094;2023-05-29T13:22:22;3.03;;;2.83;;
13847;SDS011;6994;49.752;6.094;2023-05-29T13:24:49;3.25;;;2.95;;
13847;SDS011;6994;49.752;6.094;2023-05-29T13:27:17;3.00;;;2.80;;
13847;SDS011;6994;49.752;6.094;2023-05-29T13:29:45;2.55;;;2.45;;
13847;SDS011;6994;49.752;6.094;2023-05-29T13:32:13;3.05;;;2.75;;
13847;SDS011;6994;49.752;6.094;2023-05-29T13:34:40;2.75;;;2.62;;
13847;SDS011;6994;49.752;6.094;2023-05-29T13:37:07;3.00;;;2.80;;
13847;SDS011;6994;49.752;6.094;2023-05-29T13:39:34;3.72;;;3.42;;
13847;SDS011;6994;49.752;6.094;2023-05-29T13:42:02;3.40;;;3.10;;
13847;SDS011;6994;49.752;6.094;2023-05-29T13:44:29;3.20;;;3.00;;
13847;SDS011;6994;49.752;6.094;2023-05-29T13:46:56;3.00;;;2.80;;
13847;SDS011;6994;49.752;6.094;2023-05-29T13:49:23;3.20;;;3.00;;
13847;SDS011;6994;49.752;6.094;2023-05-29T13:51:50;3.35;;;3.05;;
13847;SDS011;6994;49.752;6.094;2023-05-29T13:54:18;3.47;;;3.20;;
13847;SDS011;6994;49.752;6.094;2023-05-29T13:56:45;3.77;;;3.47;;
13847;SDS011;6994;49.752;6.094;2023-05-29T13:59:12;3.08;;;2.87;;
13847;SDS011;6994;49.752;6.094;2023-05-29T14:01:39;3.50;;;3.20;;
13847;SDS011;6994;49.752;6.094;2023-05-29T14:04:06;3.05;;;2.85;;
13847;SDS011;6994;49.752;6.094;2023-05-29T14:06:34;3.10;;;2.78;;
13847;SDS011;6994;49.752;6.094;2023-05-29T14:09:01;3.25;;;3.05;;
13847;SDS011;6994;49.752;6.094;2023-05-29T14:11:28;3.25;;;2.95;;
13847;SDS011;6994;49.752;6.094;2023-05-29T14:13:56;2.75;;;2.62;;
13847;SDS011;6994;49.752;6.094;2023-05-29T14:16:23;3.97;;;3.22;;
13847;SDS011;6994;49.752;6.094;2023-05-29T14:18:50;3.28;;;2.97;;
13847;SDS011;6994;49.752;6.094;2023-05-29T14:21:18;3.75;;;3.45;;
13847;SDS011;6994;49.752;6.094;2023-05-29T14:23:45;2.60;;;2.40;;
13847;SDS011;6994;49.752;6.094;2023-05-29T14:26:12;3.42;;;3.12;;
13847;SDS011;6994;49.752;6.094;2023-05-29T14:28:39;3.10;;;2.75;;
13847;SDS011;6994;49.752;6.094;2023-05-29T14:31:07;3.22;;;2.90;;
13847;SDS011;6994;49.752;6.094;2023-05-29T14:33:34;3.10;;;2.90;;
13847;SDS011;6994;49.752;6.094;2023-05-29T14:36:01;3.12;;;2.92;;
13847;SDS011;6994;49.752;6.094;2023-05-29T14:38:29;3.22;;;2.95;;
13847;SDS011;6994;49.752;6.094;2023-05-29T14:40:56;4.03;;;2.92;;
13847;SDS011;6994;49.752;6.094;2023-05-29T14:43:23;3.58;;;3.00;;
13847;SDS011;6994;49.752;6.094;2023-05-29T14:45:50;4.62;;;2.78;;
13847;SDS011;6994;49.752;6.094;2023-05-29T14:48:18;4.72;;;2.97;;
13847;SDS011;6994;49.752;6.094;2023-05-29T14:50:45;5.60;;;2.70;;
13847;SDS011;6994;49.752;6.094;2023-05-29T14:53:12;4.00;;;3.67;;
13847;SDS011;6994;49.752;6.094;2023-05-29T14:55:39;4.85;;;3.30;;
13847;SDS011;6994;49.752;6.094;2023-05-29T14:58:06;2.85;;;2.65;;
13847;SDS011;6994;49.752;6.094;2023-05-29T15:00:34;2.92;;;2.58;;
13847;SDS011;6994;49.752;6.094;2023-05-29T15:03:01;3.47;;;2.70;;
13847;SDS011;6994;49.752;6.094;2023-05-29T15:05:28;2.97;;;2.37;;
13847;SDS011;6994;49.752;6.094;2023-05-29T15:07:56;2.40;;;2.20;;
13847;SDS011;6994;49.752;6.094;2023-05-29T15:10:24;3.05;;;2.75;;
13847;SDS011;6994;49.752;6.094;2023-05-29T15:12:52;2.97;;;2.65;;
13847;SDS011;6994;49.752;6.094;2023-05-29T15:15:19;3.28;;;2.90;;
13847;SDS011;6994;49.752;6.094;2023-05-29T15:17:46;3.83;;;3.03;;
13847;SDS011;6994;49.752;6.094;2023-05-29T15:20:14;4.07;;;3.10;;
13847;SDS011;6994;49.752;6.094;2023-05-29T15:22:41;3.30;;;2.92;;
13847;SDS011;6994;49.752;6.094;2023-05-29T15:25:08;5.30;;;3.00;;
13847;SDS011;6994;49.752;6.094;2023-05-29T15:27:35;5.70;;;2.78;;
13847;SDS011;6994;49.752;6.094;2023-05-29T15:30:10;3.95;;;3.08;;
13847;SDS011;6994;49.752;6.094;2023-05-29T15:32:37;4.90;;;3.60;;
13847;SDS011;6994;49.752;6.094;2023-05-29T15:35:03;5.00;;;2.90;;